Time;durP1;ratioP1;P1;durP2;ratioP2;P2;SDS_P1;SDS_P2;PMS_P1;PMS_P2;Temp;Humidity;BMP_temperature;BMP_pressure;BME280_temperature;BME280_humidity;BME280_pressure;Samples;Min_cycle;Max_cycle;Signal;HPM_P1;HPM_P2
2022/08/12 00:44:36;;;;;;;6.67;3.20;;;;;;;;;;5030894;28;20041;-41
2022/08/12 00:47:02;;;;;;;8.77;4.13;;;;;;;;;;5062563;28;20102;-40
2022/08/12 00:49:30;;;;;;;10.48;4.13;;;;;;;;;;5041417;28;20049;-42
2022/08/12 00:54:43;;;;;;;7.72;3.80;;;;;;;;;;5034098;28;20045;-42
2022/08/12 00:57:11;;;;;;;10.40;4.70;;;;;;;;;;5040751;28;20072;-41
2022/08/12 00:59:43;;;;;;;9.70;4.10;;;;;;;;;;5035825;28;20056;-44
2022/08/12 01:02:11;;;;;;;7.63;3.55;;;;;;;;;;5041073;28;20041;-42
2022/08/12 01:12:54;;;;;;;8.40;3.80;;;;;;;;;;5037639;28;20044;-40
2022/08/12 01:15:23;;;;;;;8.48;3.38;;;;;;;;;;5035053;28;20056;-41
2022/08/12 01:17:49;;;;;;;8.18;3.80;;;;;;;;;;5040702;28;20059;-42
2022/08/12 01:20:21;;;;;;;6.55;3.47;;;;;;;;;;5054517;28;20053;-42
2022/08/12 01:22:58;;;;;;;7.73;3.50;;;;;;;;;;5033375;28;20189;-41
2022/08/12 01:25:27;;;;;;;7.85;3.63;;;;;;;;;;5036217;28;20151;-41
2022/08/12 01:27:56;;;;;;;7.95;3.72;;;;;;;;;;5058411;28;20530;-39
2022/08/12 01:30:24;;;;;;;7.13;3.53;;;;;;;;;;5043600;28;20167;-41
2022/08/12 01:32:51;;;;;;;8.38;3.45;;;;;;;;;;5057954;28;20052;-39
2022/08/12 01:35:17;;;;;;;10.10;3.27;;;;;;;;;;5032160;28;20103;-41
2022/08/12 01:37:46;;;;;;;10.88;3.28;;;;;;;;;;5024902;28;20405;-41
2022/08/12 01:40:15;;;;;;;9.27;3.25;;;;;;;;;;5024823;28;20052;-43
2022/08/12 01:42:44;;;;;;;8.05;3.38;;;;;;;;;;5043310;28;20175;-40
2022/08/12 01:45:11;;;;;;;8.38;3.28;;;;;;;;;;5034215;28;20056;-41
2022/08/12 01:47:48;;;;;;;6.87;3.30;;;;;;;;;;5035802;28;20060;-41
2022/08/12 01:50:19;;;;;;;9.88;3.90;;;;;;;;;;5039081;28;20068;-39
2022/08/12 01:52:51;;;;;;;6.88;3.78;;;;;;;;;;5040957;28;20041;-40
2022/08/12 01:55:20;;;;;;;8.02;3.75;;;;;;;;;;5043442;28;20569;-39
2022/08/12 01:57:50;;;;;;;6.93;3.30;;;;;;;;;;5044310;28;20775;-40
2022/08/12 02:00:16;;;;;;;6.80;3.47;;;;;;;;;;5003078;28;20090;-39
2022/08/12 02:02:47;;;;;;;7.30;3.67;;;;;;;;;;5017759;28;20099;-42
2022/08/12 02:14:00;;;;;;;10.60;3.17;;;;;;;;;;5053657;28;20111;-39
2022/08/12 02:16:35;;;;;;;9.52;3.30;;;;;;;;;;5023715;28;20638;-39
2022/08/12 02:19:12;;;;;;;6.90;3.30;;;;;;;;;;5060087;28;20068;-39
2022/08/12 02:21:41;;;;;;;7.00;3.50;;;;;;;;;;5038163;28;20673;-40
2022/08/12 02:24:09;;;;;;;7.60;3.28;;;;;;;;;;5062567;28;20072;-40
2022/08/12 02:26:39;;;;;;;8.73;3.90;;;;;;;;;;5047402;28;20052;-40
2022/08/12 02:29:06;;;;;;;6.28;3.10;;;;;;;;;;5047361;28;20053;-41
2022/08/12 02:31:34;;;;;;;6.18;3.42;;;;;;;;;;5025986;28;20057;-41
2022/08/12 02:34:01;;;;;;;6.97;3.10;;;;;;;;;;5044922;28;20071;-41
2022/08/12 02:36:28;;;;;;;7.63;3.05;;;;;;;;;;5046686;28;20116;-40
2022/08/12 02:38:57;;;;;;;6.10;3.20;;;;;;;;;;5036937;28;20110;-41
2022/08/12 02:41:25;;;;;;;9.60;3.08;;;;;;;;;;5048255;28;20045;-40
2022/08/12 02:43:53;;;;;;;8.13;3.08;;;;;;;;;;5023766;28;20547;-39
2022/08/12 02:46:21;;;;;;;8.30;3.20;;;;;;;;;;5042400;28;20049;-41
2022/08/12 02:48:50;;;;;;;8.35;3.95;;;;;;;;;;5042054;28;20052;-41
2022/08/12 02:51:18;;;;;;;7.13;3.60;;;;;;;;;;5034445;28;20112;-40
2022/08/12 02:53:45;;;;;;;7.57;3.50;;;;;;;;;;5047579;28;20048;-40
2022/08/12 02:56:12;;;;;;;8.32;3.50;;;;;;;;;;5053541;28;20045;-41
2022/08/12 02:58:38;;;;;;;8.73;3.80;;;;;;;;;;5043835;28;20065;-38
2022/08/12 03:01:08;;;;;;;9.20;3.17;;;;;;;;;;5020120;28;20049;-39
2022/08/12 03:03:35;;;;;;;6.80;3.23;;;;;;;;;;5045030;28;20045;-40
2022/08/12 03:06:06;;;;;;;8.20;3.60;;;;;;;;;;5033476;28;20560;-39
2022/08/12 03:08:36;;;;;;;9.65;3.72;;;;;;;;;;5049568;28;20036;-41
2022/08/12 03:11:04;;;;;;;7.07;3.00;;;;;;;;;;5051479;28;20100;-40
2022/08/12 03:13:35;;;;;;;5.97;3.10;;;;;;;;;;5064683;28;20243;-47
2022/08/12 03:16:02;;;;;;;7.60;3.10;;;;;;;;;;5036767;28;20072;-40
2022/08/12 03:18:30;;;;;;;7.80;3.42;;;;;;;;;;5029665;28;20215;-40
2022/08/12 03:20:57;;;;;;;6.32;3.53;;;;;;;;;;5036059;28;20139;-43
2022/08/12 03:23:25;;;;;;;7.10;3.20;;;;;;;;;;5049477;28;20126;-40
2022/08/12 03:25:55;;;;;;;7.57;3.38;;;;;;;;;;5061349;28;20057;-42
2022/08/12 03:31:04;;;;;;;12.88;3.38;;;;;;;;;;5045373;28;20052;-40
2022/08/12 03:33:33;;;;;;;10.68;3.10;;;;;;;;;;5041522;28;20766;-40
2022/08/12 03:36:01;;;;;;;7.13;3.38;;;;;;;;;;5037248;28;20052;-38
2022/08/12 03:38:29;;;;;;;7.07;3.13;;;;;;;;;;5047589;28;20647;-39
2022/08/12 04:00:23;;;;;;;6.75;3.35;;;;;;;;;;5052576;28;20158;-39
2022/08/12 04:02:54;;;;;;;9.73;3.40;;;;;;;;;;5045889;28;20045;-42
2022/08/12 04:05:21;;;;;;;6.88;3.33;;;;;;;;;;5042805;28;20044;-42
2022/08/12 04:07:48;;;;;;;11.60;4.00;;;;;;;;;;5046480;28;20060;-40
2022/08/12 04:10:16;;;;;;;7.13;3.35;;;;;;;;;;5064558;28;20041;-39
2022/08/12 04:15:27;;;;;;;8.02;3.55;;;;;;;;;;5059919;28;20375;-41
2022/08/12 04:17:54;;;;;;;7.00;3.42;;;;;;;;;;5048937;28;20065;-40
2022/08/12 04:20:21;;;;;;;7.07;3.60;;;;;;;;;;5051963;28;20114;-39
2022/08/12 04:22:48;;;;;;;8.10;3.53;;;;;;;;;;5052328;28;20119;-40
2022/08/12 04:25:16;;;;;;;9.70;3.20;;;;;;;;;;5057086;28;20045;-40
2022/08/12 04:27:43;;;;;;;7.05;3.58;;;;;;;;;;5045851;28;20135;-40
2022/08/12 04:30:11;;;;;;;7.47;3.10;;;;;;;;;;5045171;28;20053;-41
2022/08/12 04:32:39;;;;;;;7.37;3.33;;;;;;;;;;5053002;28;20056;-41
2022/08/12 04:35:06;;;;;;;8.40;3.47;;;;;;;;;;5055262;28;20037;-43
2022/08/12 04:37:32;;;;;;;8.07;3.10;;;;;;;;;;5044645;28;20041;-40
2022/08/12 04:39:59;;;;;;;9.02;3.40;;;;;;;;;;5044980;28;20045;-41
2022/08/12 04:42:27;;;;;;;10.43;3.78;;;;;;;;;;5042131;28;20041;-39
2022/08/12 04:44:53;;;;;;;7.93;3.70;;;;;;;;;;5053582;28;20267;-40
2022/08/12 04:47:20;;;;;;;11.70;4.80;;;;;;;;;;5030346;28;20084;-44
2022/08/12 04:49:48;;;;;;;7.68;3.60;;;;;;;;;;5048108;28;20052;-41
2022/08/12 04:52:15;;;;;;;8.23;3.60;;;;;;;;;;5047449;28;20048;-40
2022/08/12 04:54:42;;;;;;;9.40;3.85;;;;;;;;;;5041043;28;20049;-40
2022/08/12 04:57:09;;;;;;;8.93;3.93;;;;;;;;;;5040366;28;20049;-40
2022/08/12 04:59:37;;;;;;;7.10;3.38;;;;;;;;;;5038903;28;20056;-43
2022/08/12 05:02:04;;;;;;;7.15;3.30;;;;;;;;;;5038777;28;20045;-42
2022/08/12 05:04:31;;;;;;;6.65;3.20;;;;;;;;;;5049031;28;20432;-41
2022/08/12 05:06:58;;;;;;;8.32;3.30;;;;;;;;;;5042944;28;20176;-43
2022/08/12 05:09:25;;;;;;;9.13;3.07;;;;;;;;;;5048038;28;20045;-42
2022/08/12 05:11:51;;;;;;;8.52;3.65;;;;;;;;;;5060659;28;20062;-42
2022/08/12 05:14:18;;;;;;;15.18;3.60;;;;;;;;;;5052475;28;20045;-43
2022/08/12 05:16:46;;;;;;;8.65;4.50;;;;;;;;;;5044882;28;20616;-41
2022/08/12 05:19:13;;;;;;;9.77;4.05;;;;;;;;;;5030647;28;20076;-50
2022/08/12 05:21:40;;;;;;;7.27;3.17;;;;;;;;;;5040997;28;20049;-43
2022/08/12 05:24:07;;;;;;;8.07;3.50;;;;;;;;;;5039096;28;20131;-47
2022/08/12 05:26:34;;;;;;;10.73;3.58;;;;;;;;;;5035830;28;20380;-42
2022/08/12 05:29:00;;;;;;;8.35;3.63;;;;;;;;;;5031923;28;20409;-43
2022/08/12 05:31:27;;;;;;;8.13;3.75;;;;;;;;;;5043587;28;20135;-42
2022/08/12 05:33:55;;;;;;;8.90;3.70;;;;;;;;;;5024185;28;20052;-42
2022/08/12 05:36:22;;;;;;;7.75;3.20;;;;;;;;;;5052553;28;20052;-42
2022/08/12 05:41:33;;;;;;;7.00;3.20;;;;;;;;;;5037498;28;20049;-43
2022/08/12 05:44:01;;;;;;;6.20;2.95;;;;;;;;;;5035987;28;20068;-41
2022/08/12 05:46:29;;;;;;;6.93;2.93;;;;;;;;;;5047798;28;20061;-43
2022/08/12 05:48:57;;;;;;;6.75;2.60;;;;;;;;;;5048295;28;20049;-41
2022/08/12 05:51:25;;;;;;;8.02;2.80;;;;;;;;;;5036059;28;20525;-40
2022/08/12 05:53:51;;;;;;;7.25;2.88;;;;;;;;;;5049629;28;20052;-43
2022/08/12 05:56:19;;;;;;;6.22;2.90;;;;;;;;;;5058379;28;20072;-39
2022/08/12 05:58:45;;;;;;;6.37;3.27;;;;;;;;;;5038706;28;20087;-43
2022/08/12 06:01:12;;;;;;;6.30;2.80;;;;;;;;;;5058083;28;20063;-39
2022/08/12 06:03:39;;;;;;;8.57;3.15;;;;;;;;;;5027141;28;20040;-41
2022/08/12 06:06:07;;;;;;;7.53;2.88;;;;;;;;;;5052316;28;20048;-41
2022/08/12 06:08:34;;;;;;;6.38;2.95;;;;;;;;;;5044237;28;20095;-40
2022/08/12 06:11:01;;;;;;;6.63;3.03;;;;;;;;;;5044168;28;20357;-39
2022/08/12 06:13:28;;;;;;;6.00;2.90;;;;;;;;;;5026509;28;20087;-40
2022/08/12 06:15:55;;;;;;;7.13;2.78;;;;;;;;;;5051879;28;20076;-41
2022/08/12 06:18:22;;;;;;;8.45;3.13;;;;;;;;;;5058529;28;20044;-39
2022/08/12 06:20:49;;;;;;;7.35;3.10;;;;;;;;;;5038442;28;20057;-40
2022/08/12 06:23:17;;;;;;;7.13;2.93;;;;;;;;;;5053678;28;20052;-41
2022/08/12 06:25:45;;;;;;;10.55;2.70;;;;;;;;;;5043077;28;20045;-40
2022/08/12 06:28:16;;;;;;;10.00;2.88;;;;;;;;;;5046911;28;20049;-39
2022/08/12 06:30:44;;;;;;;8.40;2.40;;;;;;;;;;5039720;28;20044;-40
2022/08/12 06:33:12;;;;;;;7.68;2.35;;;;;;;;;;5048932;28;20063;-42
2022/08/12 06:35:40;;;;;;;9.80;3.10;;;;;;;;;;5042532;28;20055;-40
2022/08/12 06:38:14;;;;;;;8.18;2.35;;;;;;;;;;5056267;28;20068;-42
2022/08/12 06:43:28;;;;;;;7.70;3.42;;;;;;;;;;5006971;28;20194;-40
2022/08/12 06:45:57;;;;;;;7.50;2.60;;;;;;;;;;5043756;28;20627;-40
2022/08/12 06:48:25;;;;;;;8.23;2.90;;;;;;;;;;5050315;28;20055;-39
2022/08/12 06:50:51;;;;;;;6.97;2.45;;;;;;;;;;5056099;28;20048;-43
2022/08/12 06:53:18;;;;;;;6.60;3.13;;;;;;;;;;5049149;28;20098;-38
2022/08/12 06:55:46;;;;;;;7.97;3.08;;;;;;;;;;5050999;28;20450;-39
2022/08/12 06:58:13;;;;;;;7.15;3.47;;;;;;;;;;5048444;28;20037;-39
2022/08/12 07:00:42;;;;;;;6.27;2.37;;;;;;;;;;5048650;28;20572;-39
2022/08/12 07:03:09;;;;;;;8.27;3.40;;;;;;;;;;5048754;28;20073;-41
2022/08/12 07:05:36;;;;;;;6.78;2.80;;;;;;;;;;5058005;28;20554;-40
2022/08/12 07:08:07;;;;;;;6.32;2.97;;;;;;;;;;5041890;28;20048;-40
2022/08/12 07:10:33;;;;;;;6.28;2.45;;;;;;;;;;5056565;28;20044;-40
2022/08/12 07:13:02;;;;;;;7.97;2.73;;;;;;;;;;5039211;28;20095;-41
2022/08/12 07:15:29;;;;;;;8.70;2.50;;;;;;;;;;5045568;28;20124;-39
2022/08/12 07:18:03;;;;;;;6.80;2.70;;;;;;;;;;5052281;28;20075;-39
2022/08/12 07:20:30;;;;;;;6.45;3.17;;;;;;;;;;5043124;28;20076;-40
2022/08/12 07:22:56;;;;;;;7.63;2.70;;;;;;;;;;5049689;28;20079;-44
2022/08/12 07:25:33;;;;;;;8.03;2.67;;;;;;;;;;5059478;28;20075;-43
2022/08/12 07:28:02;;;;;;;8.02;2.70;;;;;;;;;;5059572;28;20071;-39
2022/08/12 07:30:30;;;;;;;7.38;2.78;;;;;;;;;;5033568;28;20109;-41
2022/08/12 07:32:57;;;;;;;7.57;2.60;;;;;;;;;;5052187;28;20053;-40
2022/08/12 07:35:24;;;;;;;7.88;2.80;;;;;;;;;;5052767;28;20040;-39
2022/08/12 07:37:52;;;;;;;7.43;2.87;;;;;;;;;;5052761;28;20907;-41
2022/08/12 07:40:19;;;;;;;6.30;2.85;;;;;;;;;;5043984;28;20053;-41
2022/08/12 07:42:45;;;;;;;6.47;3.13;;;;;;;;;;5027818;28;20048;-40
2022/08/12 07:45:13;;;;;;;10.88;3.00;;;;;;;;;;5034578;28;20052;-43
2022/08/12 07:47:41;;;;;;;8.93;3.25;;;;;;;;;;5054018;28;20052;-40
2022/08/12 07:50:09;;;;;;;10.17;2.90;;;;;;;;;;5032395;28;20075;-41
2022/08/12 07:52:37;;;;;;;6.80;2.40;;;;;;;;;;5040413;28;20098;-40
2022/08/12 07:55:03;;;;;;;5.80;2.53;;;;;;;;;;5045586;28;20056;-40
2022/08/12 07:57:32;;;;;;;7.03;2.70;;;;;;;;;;5036053;28;20342;-47
2022/08/12 08:00:02;;;;;;;6.93;2.40;;;;;;;;;;5025114;28;20045;-40
2022/08/12 08:02:32;;;;;;;7.30;2.43;;;;;;;;;;5047599;28;20045;-40
2022/08/12 08:04:59;;;;;;;6.68;2.30;;;;;;;;;;5042328;28;20139;-39
2022/08/12 08:07:28;;;;;;;7.05;2.05;;;;;;;;;;5028365;28;20052;-42
2022/08/12 08:09:56;;;;;;;6.38;2.55;;;;;;;;;;5047134;28;20045;-40
2022/08/12 08:15:08;;;;;;;6.90;2.70;;;;;;;;;;5045881;28;20110;-41
2022/08/12 08:17:36;;;;;;;7.90;2.80;;;;;;;;;;5049204;28;20076;-40
2022/08/12 08:20:03;;;;;;;16.50;2.95;;;;;;;;;;5027502;28;20204;-41
2022/08/12 08:22:29;;;;;;;6.60;2.58;;;;;;;;;;5048190;28;20049;-42
2022/08/12 08:24:58;;;;;;;5.85;2.30;;;;;;;;;;5041875;28;20049;-40
2022/08/12 08:27:25;;;;;;;5.85;2.50;;;;;;;;;;5033295;28;20825;-45
2022/08/12 08:29:51;;;;;;;6.33;2.70;;;;;;;;;;4695039;28;10000599;-45
2022/08/12 08:32:18;;;;;;;9.88;2.60;;;;;;;;;;5000522;28;20212;-42
2022/08/12 08:34:46;;;;;;;7.15;2.65;;;;;;;;;;5006595;28;20053;-43
2022/08/12 08:37:14;;;;;;;6.82;2.20;;;;;;;;;;5032385;28;20040;-41
2022/08/12 08:39:41;;;;;;;5.47;1.95;;;;;;;;;;5016681;28;20052;-43
2022/08/12 08:44:56;;;;;;;7.95;2.55;;;;;;;;;;5042623;28;20052;-43
2022/08/12 08:47:23;;;;;;;8.30;2.28;;;;;;;;;;5029848;28;20044;-43
2022/08/12 08:49:51;;;;;;;7.28;2.45;;;;;;;;;;5036647;28;20064;-42
2022/08/12 08:52:24;;;;;;;9.35;2.40;;;;;;;;;;5031642;28;20071;-40
2022/08/12 08:54:50;;;;;;;7.30;2.33;;;;;;;;;;5041484;28;20071;-43
2022/08/12 08:57:17;;;;;;;7.05;2.20;;;;;;;;;;5041187;28;20116;-40
2022/08/12 08:59:44;;;;;;;8.50;2.70;;;;;;;;;;5035324;28;20547;-41
2022/08/12 09:02:10;;;;;;;8.93;2.20;;;;;;;;;;5030274;28;20057;-43
2022/08/12 09:04:38;;;;;;;6.75;2.42;;;;;;;;;;5041999;28;20060;-42
2022/08/12 09:07:06;;;;;;;5.77;2.27;;;;;;;;;;5035884;28;20082;-42
2022/08/12 09:09:36;;;;;;;8.93;2.50;;;;;;;;;;5042582;28;20059;-44
2022/08/12 09:14:47;;;;;;;5.57;2.20;;;;;;;;;;5019100;28;20066;-43
2022/08/12 09:17:14;;;;;;;10.30;2.25;;;;;;;;;;5040480;28;20052;-45
2022/08/12 09:19:40;;;;;;;6.07;2.30;;;;;;;;;;5035046;28;20502;-48
2022/08/12 09:22:09;;;;;;;6.50;2.00;;;;;;;;;;5016909;28;20305;-43
2022/08/12 09:24:36;;;;;;;7.85;2.35;;;;;;;;;;5033865;28;20128;-42
2022/08/12 09:27:05;;;;;;;7.68;2.78;;;;;;;;;;5042895;28;20243;-43
2022/08/12 09:29:32;;;;;;;5.85;2.10;;;;;;;;;;5022187;28;20863;-48
2022/08/12 09:31:59;;;;;;;7.27;2.30;;;;;;;;;;5040165;28;20059;-39
2022/08/12 09:34:28;;;;;;;5.22;2.10;;;;;;;;;;5027764;28;20080;-40
2022/08/12 09:36:56;;;;;;;6.30;2.17;;;;;;;;;;5033613;28;20049;-41
2022/08/12 09:39:23;;;;;;;5.70;2.30;;;;;;;;;;5041510;28;20090;-41
2022/08/12 09:45:19;;;;;;;5.22;2.28;;;;;;;;;;5019023;28;20647;-41
2022/08/12 09:47:27;;;;;;;6.80;2.28;;;;;;;;;;5041437;28;20078;-40
2022/08/12 09:49:54;;;;;;;5.05;1.90;;;;;;;;;;5036655;28;20056;-41
2022/08/12 09:52:22;;;;;;;5.60;2.13;;;;;;;;;;5036289;28;20049;-41
2022/08/12 09:54:50;;;;;;;5.00;2.03;;;;;;;;;;5039285;28;20045;-41
2022/08/12 09:57:19;;;;;;;6.90;2.70;;;;;;;;;;5036673;28;20053;-47
2022/08/12 09:59:46;;;;;;;5.85;2.25;;;;;;;;;;5038353;28;20048;-43
2022/08/12 10:02:12;;;;;;;5.53;2.30;;;;;;;;;;5014059;28;20119;-42
2022/08/12 10:04:47;;;;;;;5.95;2.50;;;;;;;;;;5031405;28;20049;-44
2022/08/12 10:07:14;;;;;;;6.88;2.53;;;;;;;;;;5034153;28;20052;-42
2022/08/12 10:09:40;;;;;;;5.37;2.13;;;;;;;;;;5050383;28;20045;-45
2022/08/12 10:14:53;;;;;;;6.18;2.58;;;;;;;;;;5033703;28;20057;-42
2022/08/12 10:17:20;;;;;;;6.43;2.58;;;;;;;;;;5051668;28;20048;-41
2022/08/12 10:19:46;;;;;;;6.30;2.65;;;;;;;;;;5050169;28;20094;-42
2022/08/12 10:22:14;;;;;;;8.30;2.40;;;;;;;;;;5056603;28;20045;-45
2022/08/12 10:24:41;;;;;;;6.38;2.30;;;;;;;;;;5042777;28;20572;-41
2022/08/12 10:29:53;;;;;;;6.53;2.42;;;;;;;;;;5041717;28;20048;-42
2022/08/12 10:32:22;;;;;;;7.97;2.90;;;;;;;;;;4684512;28;9999734;-43
2022/08/12 10:34:49;;;;;;;7.20;2.73;;;;;;;;;;5041598;28;20359;-41
2022/08/12 10:37:17;;;;;;;6.45;2.20;;;;;;;;;;5031600;28;20045;-43
2022/08/12 10:39:44;;;;;;;7.45;2.70;;;;;;;;;;5048356;28;20057;-45
2022/08/12 10:45:00;;;;;;;6.00;2.35;;;;;;;;;;5042531;28;20041;-40
2022/08/12 10:47:27;;;;;;;6.27;2.80;;;;;;;;;;5030797;28;20144;-44
2022/08/12 10:49:54;;;;;;;9.70;2.60;;;;;;;;;;5055194;28;20040;-43
2022/08/12 10:52:23;;;;;;;9.95;2.60;;;;;;;;;;5042652;28;20044;-40
2022/08/12 10:54:50;;;;;;;7.82;3.00;;;;;;;;;;5040446;28;20064;-40
2022/08/12 10:57:19;;;;;;;8.57;2.50;;;;;;;;;;5030776;28;20128;-41
2022/08/12 10:59:46;;;;;;;6.70;3.00;;;;;;;;;;5042799;28;20053;-41
2022/08/12 11:02:14;;;;;;;6.80;2.53;;;;;;;;;;5038607;28;20261;-45
2022/08/12 11:04:41;;;;;;;6.93;2.67;;;;;;;;;;5025651;28;20136;-44
2022/08/12 11:07:08;;;;;;;6.25;2.70;;;;;;;;;;5040154;28;20442;-48
2022/08/12 11:09:36;;;;;;;5.85;2.83;;;;;;;;;;5039845;28;20128;-43
2022/08/12 11:12:05;;;;;;;7.53;3.10;;;;;;;;;;5028707;28;20064;-47
2022/08/12 11:14:33;;;;;;;7.15;3.53;;;;;;;;;;5051980;28;20057;-44
2022/08/12 11:17:00;;;;;;;7.05;2.78;;;;;;;;;;5031783;28;20113;-44
2022/08/12 11:19:28;;;;;;;10.85;3.55;;;;;;;;;;5044074;28;20044;-41
2022/08/12 11:21:55;;;;;;;7.38;3.10;;;;;;;;;;5030664;28;20068;-48
2022/08/12 11:24:22;;;;;;;7.53;3.23;;;;;;;;;;5046582;28;20049;-42
2022/08/12 11:26:49;;;;;;;6.97;2.90;;;;;;;;;;5039497;28;20167;-42
2022/08/12 11:29:16;;;;;;;7.82;3.28;;;;;;;;;;5045966;28;20045;-43
2022/08/12 11:31:44;;;;;;;7.72;4.07;;;;;;;;;;5040059;28;20060;-46
2022/08/12 11:34:10;;;;;;;7.85;3.10;;;;;;;;;;5040116;28;20057;-45
2022/08/12 11:36:37;;;;;;;8.97;3.37;;;;;;;;;;5042780;28;20045;-43
2022/08/12 11:39:04;;;;;;;6.82;3.20;;;;;;;;;;5051579;28;20060;-41
2022/08/12 11:41:31;;;;;;;9.07;3.10;;;;;;;;;;5047979;28;20565;-42
2022/08/12 11:43:57;;;;;;;9.52;3.85;;;;;;;;;;5029784;28;20775;-43
2022/08/12 11:46:24;;;;;;;8.10;4.20;;;;;;;;;;5020534;28;20048;-43
2022/08/12 11:48:52;;;;;;;7.83;3.63;;;;;;;;;;5035042;28;20152;-43
2022/08/12 11:51:19;;;;;;;9.80;3.63;;;;;;;;;;5055985;28;20191;-45
2022/08/12 11:53:46;;;;;;;8.55;3.63;;;;;;;;;;5047947;28;20846;-42
2022/08/12 11:56:12;;;;;;;5.53;2.95;;;;;;;;;;5051011;28;20055;-44
2022/08/12 11:58:39;;;;;;;8.68;3.80;;;;;;;;;;5031182;28;20044;-44
2022/08/12 12:01:06;;;;;;;8.53;3.67;;;;;;;;;;5054581;28;20462;-42
2022/08/12 12:03:32;;;;;;;5.65;3.00;;;;;;;;;;5044636;28;20041;-42
2022/08/12 12:06:00;;;;;;;6.93;3.22;;;;;;;;;;5032828;28;20365;-47
2022/08/12 12:08:29;;;;;;;6.55;3.78;;;;;;;;;;5048735;28;20573;-44
2022/08/12 12:10:56;;;;;;;7.22;3.88;;;;;;;;;;5052939;28;20051;-43
2022/08/12 12:13:23;;;;;;;7.27;3.83;;;;;;;;;;5031874;28;20083;-44
2022/08/12 12:15:50;;;;;;;7.18;3.15;;;;;;;;;;4698164;28;10000214;-41
2022/08/12 12:18:21;;;;;;;7.72;3.70;;;;;;;;;;5038092;28;20644;-42
2022/08/12 12:20:48;;;;;;;7.97;2.85;;;;;;;;;;5035959;28;20064;-41
2022/08/12 12:23:16;;;;;;;5.68;3.35;;;;;;;;;;5048563;28;20044;-43
2022/08/12 12:25:42;;;;;;;9.47;3.67;;;;;;;;;;5039411;28;20636;-42
2022/08/12 12:28:09;;;;;;;6.15;3.30;;;;;;;;;;5044540;28;20747;-41
2022/08/12 12:30:36;;;;;;;6.28;3.33;;;;;;;;;;5055541;28;20661;-44
2022/08/12 12:33:04;;;;;;;5.40;2.83;;;;;;;;;;5041151;28;21154;-44
2022/08/12 12:35:31;;;;;;;5.95;3.28;;;;;;;;;;5042694;28;20351;-43
2022/08/12 12:37:58;;;;;;;6.33;3.67;;;;;;;;;;5023416;28;20044;-43
2022/08/12 12:40:27;;;;;;;8.07;3.13;;;;;;;;;;4687399;28;9999936;-43
2022/08/12 12:42:54;;;;;;;5.63;2.45;;;;;;;;;;5042955;28;20075;-42
2022/08/12 12:45:21;;;;;;;8.83;2.90;;;;;;;;;;5029888;28;20045;-44
2022/08/12 12:47:58;;;;;;;7.25;3.55;;;;;;;;;;5036940;28;20049;-42
2022/08/12 12:50:25;;;;;;;6.97;3.40;;;;;;;;;;5032694;28;20045;-40
2022/08/12 12:52:51;;;;;;;4.70;1.90;;;;;;;;;;5037872;28;20497;-45
2022/08/12 12:55:18;;;;;;;6.28;3.05;;;;;;;;;;5047854;28;20408;-41
2022/08/12 12:57:47;;;;;;;6.63;3.07;;;;;;;;;;5045121;28;20083;-41
2022/08/12 13:00:14;;;;;;;8.45;2.97;;;;;;;;;;5049094;28;20464;-41
2022/08/12 13:02:41;;;;;;;9.07;3.50;;;;;;;;;;5038699;28;20045;-43
2022/08/12 13:05:08;;;;;;;8.95;3.55;;;;;;;;;;5043797;28;20067;-43
2022/08/12 13:07:38;;;;;;;5.55;2.90;;;;;;;;;;5038196;28;20055;-45
2022/08/12 13:10:05;;;;;;;7.80;3.43;;;;;;;;;;5047025;28;20053;-43
2022/08/12 13:12:33;;;;;;;6.55;2.55;;;;;;;;;;5035748;28;20075;-42
2022/08/12 13:15:02;;;;;;;6.13;3.33;;;;;;;;;;5046680;28;20048;-42
2022/08/12 13:17:30;;;;;;;6.50;3.28;;;;;;;;;;5025735;28;20087;-42
2022/08/12 13:19:57;;;;;;;5.82;2.90;;;;;;;;;;5029188;28;20045;-41
2022/08/12 13:22:23;;;;;;;7.50;3.10;;;;;;;;;;5013926;28;20048;-41
2022/08/12 13:24:51;;;;;;;6.55;3.35;;;;;;;;;;5053800;28;20045;-44
2022/08/12 13:27:19;;;;;;;5.85;3.25;;;;;;;;;;5039302;28;20570;-45
2022/08/12 13:29:46;;;;;;;4.60;2.08;;;;;;;;;;5043231;28;20119;-50
2022/08/12 13:32:14;;;;;;;5.45;2.50;;;;;;;;;;5044578;28;20058;-45
2022/08/12 13:34:40;;;;;;;4.70;2.30;;;;;;;;;;5028975;28;20084;-42
2022/08/12 13:37:07;;;;;;;6.32;3.38;;;;;;;;;;5043290;28;20048;-42
2022/08/12 13:39:33;;;;;;;6.28;3.00;;;;;;;;;;5041848;28;20045;-43
2022/08/12 13:42:08;;;;;;;6.68;2.80;;;;;;;;;;5041951;28;20041;-44
2022/08/12 13:44:35;;;;;;;5.03;1.98;;;;;;;;;;5053115;28;20049;-41
2022/08/12 13:47:01;;;;;;;6.17;2.90;;;;;;;;;;5041617;28;20049;-47
2022/08/12 13:49:32;;;;;;;5.95;2.58;;;;;;;;;;5033610;28;20049;-41
2022/08/12 13:51:59;;;;;;;6.03;2.80;;;;;;;;;;5054147;28;20104;-41
2022/08/12 13:54:25;;;;;;;8.52;3.33;;;;;;;;;;5021818;28;20111;-45
2022/08/12 13:56:52;;;;;;;5.88;2.15;;;;;;;;;;5049994;28;20069;-45
2022/08/12 13:59:20;;;;;;;5.10;2.23;;;;;;;;;;5036457;28;20044;-41
2022/08/12 14:01:50;;;;;;;6.05;2.90;;;;;;;;;;5049293;28;20041;-43
2022/08/12 14:04:18;;;;;;;5.97;3.38;;;;;;;;;;5035931;28;20044;-42
2022/08/12 14:06:49;;;;;;;7.70;2.78;;;;;;;;;;5043273;28;20049;-43
2022/08/12 14:09:15;;;;;;;7.65;3.30;;;;;;;;;;5040412;28;20051;-40
2022/08/12 14:11:42;;;;;;;5.70;2.60;;;;;;;;;;5029300;28;20064;-40
2022/08/12 14:14:10;;;;;;;6.13;2.72;;;;;;;;;;5057713;28;20048;-45
2022/08/12 14:16:37;;;;;;;6.43;2.60;;;;;;;;;;5043766;28;20041;-43
2022/08/12 14:19:04;;;;;;;5.35;2.55;;;;;;;;;;5046024;28;20045;-44
2022/08/12 14:21:31;;;;;;;5.38;2.47;;;;;;;;;;5044442;28;20055;-45
2022/08/12 14:24:01;;;;;;;5.23;2.40;;;;;;;;;;5048069;28;20044;-42
2022/08/12 14:26:28;;;;;;;5.28;2.65;;;;;;;;;;5017276;28;20275;-42
2022/08/12 14:28:55;;;;;;;5.85;2.80;;;;;;;;;;5011858;28;20045;-40
2022/08/12 14:31:22;;;;;;;6.68;3.30;;;;;;;;;;5013727;28;20045;-43
2022/08/12 14:33:51;;;;;;;7.20;3.17;;;;;;;;;;5022014;28;20041;-43
2022/08/12 14:36:19;;;;;;;4.73;2.70;;;;;;;;;;5045075;28;20061;-45
2022/08/12 14:38:46;;;;;;;6.43;3.08;;;;;;;;;;5036707;28;20060;-46
2022/08/12 14:41:15;;;;;;;5.77;3.13;;;;;;;;;;4349013;28;9999911;-46
2022/08/12 14:43:42;;;;;;;7.68;3.53;;;;;;;;;;5036816;28;20048;-43
2022/08/12 14:46:11;;;;;;;6.28;3.05;;;;;;;;;;5040869;28;20548;-43
2022/08/12 14:48:43;;;;;;;6.57;3.28;;;;;;;;;;5032097;28;20045;-42
2022/08/12 14:51:10;;;;;;;4.68;2.53;;;;;;;;;;5023638;28;20069;-43
2022/08/12 14:53:36;;;;;;;5.87;2.90;;;;;;;;;;5037245;28;20049;-46
2022/08/12 14:56:03;;;;;;;5.78;3.20;;;;;;;;;;5035213;28;20052;-45
2022/08/12 14:58:31;;;;;;;5.93;2.33;;;;;;;;;;5015722;28;20053;-43
2022/08/12 15:03:43;;;;;;;6.57;3.53;;;;;;;;;;5033420;28;20456;-43
2022/08/12 15:06:10;;;;;;;7.30;2.93;;;;;;;;;;5039985;28;20057;-43
2022/08/12 15:08:38;;;;;;;5.63;2.45;;;;;;;;;;5044020;28;20041;-44
2022/08/12 15:11:07;;;;;;;5.43;3.03;;;;;;;;;;5035695;28;20049;-45
2022/08/12 15:13:35;;;;;;;5.78;2.35;;;;;;;;;;5056402;28;20036;-43
2022/08/12 15:16:03;;;;;;;6.75;2.28;;;;;;;;;;5040228;28;20067;-44
2022/08/12 15:18:30;;;;;;;5.87;2.90;;;;;;;;;;5043111;28;20045;-41
2022/08/12 15:20:59;;;;;;;5.00;2.38;;;;;;;;;;5042456;28;20055;-47
2022/08/12 15:23:29;;;;;;;5.85;2.67;;;;;;;;;;5050502;28;20041;-43
2022/08/12 15:25:57;;;;;;;5.10;2.45;;;;;;;;;;5035738;28;20120;-45
2022/08/12 15:28:25;;;;;;;5.20;3.28;;;;;;;;;;5029690;28;20053;-44
2022/08/12 15:30:53;;;;;;;6.53;3.37;;;;;;;;;;5042101;28;20481;-48
2022/08/12 15:33:21;;;;;;;6.93;2.72;;;;;;;;;;5013806;28;20063;-44
2022/08/12 15:35:48;;;;;;;5.75;3.13;;;;;;;;;;5056016;28;20388;-42
2022/08/12 15:38:16;;;;;;;7.63;3.10;;;;;;;;;;5044282;28;20067;-41
2022/08/12 15:40:45;;;;;;;6.13;3.55;;;;;;;;;;5039176;28;20068;-43
2022/08/12 15:43:14;;;;;;;6.87;3.43;;;;;;;;;;5052247;28;20116;-50
2022/08/12 15:45:42;;;;;;;8.00;3.95;;;;;;;;;;5040628;28;20045;-43
2022/08/12 15:48:10;;;;;;;5.70;3.33;;;;;;;;;;5043736;28;20053;-45
2022/08/12 15:50:37;;;;;;;4.78;2.53;;;;;;;;;;5038762;28;20045;-44
2022/08/12 15:53:04;;;;;;;5.60;2.97;;;;;;;;;;5043135;28;20663;-43
2022/08/12 15:55:31;;;;;;;7.17;3.60;;;;;;;;;;5053705;28;20049;-49
2022/08/12 15:58:00;;;;;;;4.68;2.50;;;;;;;;;;5052808;28;20059;-46
2022/08/12 16:00:27;;;;;;;8.07;3.75;;;;;;;;;;5037951;28;20117;-42
2022/08/12 16:02:57;;;;;;;7.70;3.55;;;;;;;;;;5029207;28;20055;-46
2022/08/12 16:05:26;;;;;;;8.70;3.30;;;;;;;;;;5034686;28;20048;-40
2022/08/12 16:07:52;;;;;;;7.73;3.87;;;;;;;;;;5048378;28;20063;-45
2022/08/12 16:10:19;;;;;;;5.10;2.85;;;;;;;;;;5026547;28;20051;-42
2022/08/12 16:12:46;;;;;;;6.80;3.53;;;;;;;;;;5034659;28;20609;-41
2022/08/12 16:15:14;;;;;;;9.60;2.83;;;;;;;;;;5049362;28;20093;-43
2022/08/12 16:17:41;;;;;;;6.43;3.25;;;;;;;;;;5045756;28;20098;-45
2022/08/12 16:20:19;;;;;;;7.40;3.23;;;;;;;;;;5050850;28;20052;-44
2022/08/12 16:22:48;;;;;;;6.45;3.03;;;;;;;;;;5038251;28;20407;-43
2022/08/12 16:25:14;;;;;;;6.13;2.67;;;;;;;;;;5056597;28;20052;-41
2022/08/12 16:27:41;;;;;;;4.63;2.03;;;;;;;;;;5024771;28;20640;-45
2022/08/12 16:30:08;;;;;;;6.72;3.05;;;;;;;;;;5051594;28;20086;-46
2022/08/12 16:32:36;;;;;;;6.53;3.23;;;;;;;;;;5039346;28;20049;-43
2022/08/12 16:35:06;;;;;;;5.85;3.58;;;;;;;;;;5055037;28;20045;-46
2022/08/12 16:37:33;;;;;;;6.82;2.78;;;;;;;;;;5021368;28;20766;-47
2022/08/12 16:40:02;;;;;;;6.22;3.58;;;;;;;;;;5026345;28;20324;-45